カンゲルルススアーク の空港の天気 - METARとTAF

カンゲルルススアーク空港 ( BGSF / SFJ ) - グリーンランド カンゲルルススアーク
飛行場実況気象(Metar)
観測時間07/29 00:50 WGST (07/29 02:50 UTC)
風向・風速東北東 6m/s
視程-
天気現象
なし
気温10℃
湿度58%
気圧1020hPa
METARBGSF 290250Z AUTO 07012KT 9999NDV NCD 10/02 Q1020
過去の天気等 Google飛行場航空写真 Wunderground天気予報

過去48時間のMETAR

飛行場予報(TAF)
発表時間: 7/28 21:11 WGST (7/28 23:11 UTC)
予報対象時間: 28日22時 WGST ~ 29日20時 WGST
風向・風速東 6m/s
視程10km以上
全天の4割程度の雲 雲底高度 5490m
TAF BGSF 282311Z 2900/2922 08012KT 9999 SCT180